Latest Weather Observations for Cape Leeuwin

IDW60801

Issued at 2:35 am WST Tuesday 29 July 2014 (issued every 30 minutes, with the page automatically refreshed every 10 minutes)

About weather observations | Map of weather stations | Latest weather observations for WA | Other Formats
Station Details ID: 009518 Name: CAPE LEEUWIN Lat: -34.37 Lon: 115.14 Height: 13.0 m
Data from the previous 72 hours. | See also: Recent months at Cape Leeuwin
Date/Time
WST
Temp
°C
App
Temp
°C
Dew
Point
Rel
Hum
%
Delta-T
°C
Wind Press
QNH
hPa
Press
MSL
hPa
Rain
since 9 am
mm
Dir
 
Spd
km/h
Gust
km/h
Spd
kts
Gust
kts
29/02:30am 16.4 8.4 10.3 67 3.2 W 43 50 23 27 1019.8 - 0.0
29/02:00am 16.3 7.3 10.2 67 3.2 W 48 54 26 29 1019.7 1019.7 0.0
29/01:30am 16.6 8.4 11.8 73 2.6 W 46 56 25 30 1019.7 - 0.0
29/01:00am 16.6 7.9 11.4 71 2.8 W 48 57 26 31 1019.9 1019.9 0.0
29/12:30am 16.4 8.0 11.0 70 2.9 WNW 46 52 25 28 1019.8 - 0.0
29/12:00am 16.4 8.7 12.2 76 2.3 W 44 54 24 29 1019.9 1019.9 0.0
 
Date/Time
WST
Temp
°C
App
Temp
°C
Dew
Point
Rel
Hum
%
Delta-T
°C
Wind Press
QNH
hPa
Press
MSL
hPa
Rain
since 9 am
mm
Dir
 
Spd
km/h
Gust
km/h
Spd
kts
Gust
kts
28/11:30pm 16.5 8.4 11.9 74 2.5 W 46 54 25 29 1020.0 - 0.0
28/11:00pm 16.4 8.8 11.8 74 2.5 WNW 43 48 23 26 1020.2 1020.2 0.0
28/10:30pm 16.4 8.6 11.0 70 2.9 WNW 43 48 23 26 1020.0 - 0.0
28/10:00pm 16.2 8.8 11.2 72 2.7 WNW 41 48 22 26 1020.1 1020.1 0.0
28/09:30pm 16.1 8.8 11.7 75 2.4 W 41 48 22 26 1020.2 - 0.0
28/09:00pm 16.3 9.2 12.3 77 2.2 W 41 50 22 27 1020.3 1020.3 0.0
28/08:30pm 16.2 9.1 12.2 77 2.2 W 41 46 22 25 1020.5 - 0.0
28/08:00pm 16.0 8.4 11.7 75 2.3 W 43 50 23 27 1020.6 1020.6 0.0
28/07:30pm 16.3 8.8 12.1 76 2.3 W 43 50 23 27 1020.6 - 0.0
28/07:00pm 16.4 9.7 12.2 76 2.3 W 39 46 21 25 1020.3 1020.3 0.0
28/06:30pm 16.4 8.6 11.8 74 2.5 W 44 52 24 28 1020.0 - 0.0
28/06:00pm 16.4 8.1 11.4 72 2.7 W 46 54 25 29 1019.6 1019.6 0.0
28/05:30pm 16.7 9.1 11.7 72 2.7 W 43 48 23 26 1019.4 - 0.0
28/05:00pm 16.6 8.5 10.1 65 3.4 W 43 50 23 27 1019.3 1019.3 0.0
28/04:30pm 16.7 7.6 10.0 64 3.5 W 48 57 26 31 1019.0 - 0.0
28/04:00pm 16.9 8.9 11.1 68 3.1 W 44 54 24 29 1018.9 1018.9 0.0
28/03:30pm 17.3 8.9 11.0 66 3.4 W 46 54 25 29 1018.9 - 0.0
28/03:00pm 17.0 8.4 10.4 65 3.5 W 46 56 25 30 1018.7 1018.7 0.0
28/02:30pm 17.1 8.8 11.4 69 3.1 W 46 56 25 30 1018.8 - 0.0
28/02:00pm 17.3 9.4 11.6 69 3.1 W 44 54 24 29 1018.6 1018.6 0.0
28/01:30pm 17.0 8.4 11.7 71 2.9 W 48 56 26 30 1018.7 - 0.0
28/01:00pm 17.4 8.8 11.7 69 3.1 W 48 56 26 30 1018.9 1018.9 0.0
28/12:30pm 16.9 8.1 10.9 67 3.2 W 48 56 26 30 1019.3 - 0.0
28/12:00pm 16.9 8.1 11.1 68 3.1 W 48 57 26 31 1019.5 1019.5 0.0
28/11:30am 16.9 7.8 11.3 69 3.0 W 50 59 27 32 1019.9 - 0.0
28/11:00am 17.0 8.7 11.5 70 3.0 W 46 54 25 29 1019.9 1019.9 0.0
28/10:30am 16.9 8.0 10.7 67 3.3 W 48 56 26 30 1019.9 - 0.0
28/10:00am 17.0 9.0 10.4 65 3.5 W 43 52 23 28 1019.8 1019.8 0.0
28/09:30am 16.4 6.9 9.7 64 3.5 W 50 57 27 31 1019.7 - 0.0
28/09:00am 16.3 7.0 10.4 68 3.1 W 50 57 27 31 1019.5 1019.5 1.2
28/08:30am 16.0 6.0 10.7 71 2.8 W 54 63 29 34 1019.1 - 1.2
28/08:00am 15.7 6.4 11.8 77 2.1 W 52 63 28 34 1018.9 1018.9 1.2
28/07:30am 16.1 5.9 11.3 73 2.6 W 56 63 30 34 1018.5 - 1.2
28/07:00am 15.8 6.0 11.5 75 2.3 W 54 65 29 35 1018.3 1018.3 1.2
28/06:30am 15.8 6.7 11.1 73 2.5 W 50 59 27 32 1018.0 - 1.2
28/06:00am 15.5 5.7 11.4 76 2.2 W 54 69 29 37 1017.6 1017.6 1.2
28/05:30am 15.5 6.0 11.2 75 2.3 W 52 61 28 33 1017.5 - 1.2
28/05:00am 16.0 5.5 10.9 72 2.7 W 57 72 31 39 1017.3 1017.3 1.2
28/04:30am 15.6 5.9 11.9 78 2.0 W 54 65 29 35 1017.5 - 1.2
28/04:00am 16.2 6.5 10.5 69 3.0 W 52 61 28 33 1017.8 1017.8 1.2
28/03:30am 16.0 5.9 10.3 69 3.0 W 54 65 29 35 1017.9 - 1.2
28/03:00am 15.9 6.1 10.0 68 3.1 W 52 65 28 35 1017.9 1017.9 1.2
28/02:30am 16.1 5.6 10.4 69 3.0 W 56 69 30 37 1018.1 - 1.2
28/02:00am 16.2 6.7 11.2 72 2.7 W 52 63 28 34 1018.1 1018.1 1.2
28/01:30am 15.9 5.9 10.6 71 2.8 W 54 63 29 34 1018.0 - 1.2
28/01:00am 15.7 4.3 10.4 71 2.8 W 61 70 33 38 1018.2 1018.2 1.2
28/12:49am 15.5 6.2 10.6 72 2.6 W 50 70 27 38 1018.2 - 1.0
28/12:30am 15.7 6.6 11.2 74 2.4 W 50 61 27 33 1018.4 - 1.0
28/12:00am 16.1 5.3 9.3 64 3.5 WNW 56 69 30 37 1018.4 1018.4 1.0
 
Date/Time
WST
Temp
°C
App
Temp
°C
Dew
Point
Rel
Hum
%
Delta-T
°C
Wind Press
QNH
hPa
Press
MSL
hPa
Rain
since 9 am
mm
Dir
 
Spd
km/h
Gust
km/h
Spd
kts
Gust
kts
27/11:30pm 15.9 5.8 10.4 70 2.9 W 54 61 29 33 1018.7 - 1.0
27/11:00pm 15.7 5.5 10.2 70 2.9 W 54 63 29 34 1018.6 1018.6 1.0
27/10:46pm 15.5 5.2 11.2 75 2.3 W 56 74 30 40 1018.5 - 1.0
27/10:30pm 16.0 7.5 12.0 77 2.2 WNW 48 56 26 30 1018.8 - 1.0
27/10:03pm 15.3 6.6 11.4 77 2.1 WNW 48 67 26 36 1018.9 - 1.0
27/10:00pm 16.2 8.1 10.7 70 2.9 WNW 44 54 24 29 1019.0 1019.0 0.8
27/09:30pm 16.0 6.3 10.3 69 3.0 WNW 52 63 28 34 1019.1 - 0.8
27/09:00pm 15.8 6.3 9.8 67 3.1 W 50 61 27 33 1018.8 1018.8 0.8
27/08:30pm 15.7 6.9 9.7 67 3.1 W 46 56 25 30 1019.1 - 0.8
27/08:00pm 16.0 7.1 10.7 71 2.8 W 48 54 26 29 1018.9 1018.9 0.8
27/07:30pm 15.6 6.5 10.0 69 2.9 W 48 57 26 31 1018.8 - 0.8
27/07:00pm 15.4 6.5 10.7 73 2.5 WNW 48 61 26 33 1018.6 1018.6 0.8
27/06:30pm 15.7 6.8 11.8 77 2.1 W 50 63 27 34 1018.3 - 0.8
27/06:03pm 14.2 2.9 12.2 88 1.1 WNW 63 82 34 44 1018.1 - 0.8
27/06:00pm 15.1 2.7 12.3 83 1.5 WNW 69 82 37 44 1017.8 1017.8 0.6
27/05:58pm 16.0 6.6 10.1 68 3.1 W 50 76 27 41 1017.9 - 0.2
27/05:30pm 16.1 6.3 8.6 61 3.8 W 50 59 27 32 1017.7 - 0.2
27/05:00pm 15.8 6.8 10.3 70 2.9 WNW 48 59 26 32 1017.6 1017.6 0.2
27/04:30pm 15.9 6.6 10.6 71 2.8 WNW 50 59 27 32 1017.5 - 0.2
27/04:00pm 15.7 6.9 10.8 72 2.6 WNW 48 59 26 32 1017.5 1017.5 0.2
27/03:45pm 14.8 5.5 10.6 76 2.2 WNW 50 57 27 31 1017.7 - 0.2
27/03:30pm 14.8 2.4 12.2 84 1.4 W 69 76 37 41 1017.4 - 0.2
27/03:24pm 16.2 7.0 11.0 71 2.8 W 50 69 27 37 1017.2 - 0.0
27/03:00pm 16.2 7.7 10.5 69 3.0 W 46 57 25 31 1017.2 1017.2 0.0
27/02:45pm 16.0 6.1 11.1 72 2.6 W 54 61 29 33 1017.1 - 0.0
27/02:30pm 16.4 7.7 10.1 66 3.3 WNW 46 59 25 32 1017.0 - 0.0
27/02:00pm 15.6 5.8 10.1 70 2.9 W 52 65 28 35 1017.4 1017.4 0.0
27/01:49pm 15.8 6.5 10.5 71 2.8 W 50 69 27 37 1017.1 - 0.0
27/01:30pm 16.7 8.1 8.7 59 4.1 W 44 54 24 29 1017.4 - 0.0
27/01:00pm 16.4 7.3 9.7 64 3.5 W 48 57 26 31 1017.6 1017.6 0.0
27/12:30pm 16.2 6.8 8.8 61 3.8 W 48 59 26 32 1017.9 - 0.0
27/12:00pm 16.1 7.7 9.8 66 3.3 W 44 54 24 29 1018.3 1018.3 0.0
27/11:30am 15.8 7.4 9.6 66 3.2 W 44 52 24 28 1018.7 - 0.0
27/11:16am 15.8 6.0 8.7 62 3.6 WNW 50 69 27 37 1018.7 - 0.0
27/11:00am 14.9 4.0 9.5 70 2.8 W 57 70 31 38 1018.5 1018.5 0.0
27/10:52am 15.6 6.5 9.8 68 3.0 W 48 65 26 35 1018.6 - 0.0
27/10:37am 15.0 8.0 11.2 78 2.0 W 39 44 21 24 1018.8 - 0.0
27/10:30am 14.6 4.0 10.6 77 2.1 W 57 67 31 36 1018.8 - 0.0
27/10:18am 14.8 2.1 11.4 80 1.8 W 69 76 37 41 1018.5 - 0.0
27/10:15am 15.9 7.1 10.8 71 2.7 WNW 48 76 26 41 1018.5 - 0.0
27/10:00am 15.9 5.9 7.9 59 4.0 WNW 50 61 27 33 1018.4 1018.4 0.0
27/09:30am 15.9 6.4 8.2 60 3.9 W 48 57 26 31 1018.0 - 0.0
27/09:00am 15.6 5.8 8.7 63 3.5 W 50 61 27 33 1017.8 1017.8 2.8
27/08:30am 14.9 6.0 10.7 76 2.2 W 48 57 26 31 1017.6 - 2.8
27/08:00am 15.1 5.6 9.7 70 2.8 W 50 61 27 33 1017.2 1017.2 2.8
27/07:30am 14.8 5.8 10.2 74 2.4 W 48 56 26 30 1017.0 - 2.8
27/07:00am 15.1 6.0 9.9 71 2.7 W 48 59 26 32 1016.5 1016.5 2.8
27/06:30am 14.8 5.5 9.1 68 2.9 W 48 59 26 32 1016.3 - 2.8
27/06:00am 14.4 6.3 10.6 78 2.0 W 44 61 24 33 1016.0 1016.0 2.8
27/05:58am 14.5 6.6 10.9 79 1.9 W 43 61 23 33 1016.0 - 2.8
27/05:30am 14.6 7.0 10.4 76 2.2 W 41 46 22 25 1015.9 - 2.8
27/05:00am 14.6 6.8 11.0 79 1.9 W 43 54 23 29 1015.8 1015.8 2.8
27/04:30am 15.3 6.8 10.6 73 2.5 W 46 57 25 31 1015.6 - 2.8
27/04:00am 15.0 7.2 11.9 82 1.7 W 44 52 24 28 1015.6 1015.6 2.8
27/03:30am 14.3 4.4 11.1 81 1.7 W 54 70 29 38 1015.5 - 2.8
27/03:00am 15.0 4.6 10.8 76 2.2 W 56 65 30 35 1015.2 1015.2 2.8
27/02:30am 14.4 3.8 11.8 84 1.4 W 59 69 32 37 1015.0 - 2.8
27/02:13am 15.3 4.5 11.4 77 2.1 W 59 83 32 45 1014.7 - 2.4
27/02:00am 15.1 4.9 11.4 78 2.0 W 56 69 30 37 1014.8 1014.8 2.4
27/01:30am 14.9 3.1 11.7 81 1.7 WNW 65 82 35 44 1014.5 - 2.4
27/01:00am 14.4 3.3 12.8 90 0.9 W 63 76 34 41 1014.5 1014.5 1.6
27/12:40am 16.6 5.2 10.4 67 3.3 WNW 61 80 33 43 1014.4 - 0.6
27/12:30am 16.6 4.4 10.2 66 3.4 WNW 65 80 35 43 1014.5 - 0.6
27/12:00am 16.4 4.0 9.5 63 3.6 WNW 65 78 35 42 1014.7 1014.7 0.6
 
Date/Time
WST
Temp
°C
App
Temp
°C
Dew
Point
Rel
Hum
%
Delta-T
°C
Wind Press
QNH
hPa
Press
MSL
hPa
Rain
since 9 am
mm
Dir
 
Spd
km/h
Gust
km/h
Spd
kts
Gust
kts
26/11:38pm 16.4 4.6 9.0 61 3.8 WNW 61 80 33 43 1014.9 - 0.6
26/11:30pm 16.3 4.9 9.1 62 3.7 WNW 59 70 32 38 1015.0 - 0.6
26/11:00pm 16.3 4.8 8.7 60 3.9 WNW 59 72 32 39 1015.0 1015.0 0.6
26/10:30pm 16.2 5.0 8.3 59 4.0 WNW 57 69 31 37 1015.1 - 0.6
26/10:00pm 16.2 5.1 8.8 61 3.8 WNW 57 70 31 38 1015.1 1015.1 0.6
26/09:30pm 16.1 4.4 7.7 57 4.2 WNW 59 70 32 38 1015.0 - 0.6
26/09:00pm 16.1 5.3 9.1 63 3.6 NW 56 65 30 35 1015.0 1015.0 0.4
26/08:30pm 15.9 5.2 8.2 60 3.9 WNW 54 63 29 34 1015.0 - 0.4
26/08:00pm 15.7 5.2 7.4 57 4.1 WNW 52 61 28 33 1014.8 1014.8 0.4
26/07:30pm 15.5 5.2 6.4 54 4.4 WNW 50 59 27 32 1014.9 - 0.4
26/07:00pm 15.5 5.6 6.4 54 4.4 WNW 48 57 26 31 1014.8 1014.8 0.4
26/06:30pm 15.5 5.1 5.9 52 4.6 WNW 50 61 27 33 1014.7 - 0.4
26/06:00pm 15.4 5.1 6.3 54 4.4 WNW 50 59 27 32 1014.4 1014.4 0.4
26/05:30pm 15.4 5.3 5.8 52 4.6 WNW 48 63 26 34 1014.3 - 0.4
26/05:00pm 15.4 5.5 6.6 55 4.3 W 48 57 26 31 1014.1 1014.1 0.4
26/04:30pm 15.7 5.3 6.2 53 4.6 WNW 50 59 27 32 1013.9 - 0.4
26/04:00pm 15.2 6.3 7.8 61 3.7 W 44 52 24 28 1013.8 1013.8 0.4
26/03:30pm 15.3 6.7 8.1 62 3.6 W 43 50 23 27 1013.4 - 0.4
26/03:00pm 15.5 6.6 7.7 59 3.9 W 44 56 24 30 1013.2 1013.2 0.4
26/02:30pm 15.6 6.2 7.1 57 4.2 W 46 56 25 30 1012.9 - 0.4
26/02:00pm 15.1 5.0 7.4 60 3.8 W 50 57 27 31 1012.8 1012.8 0.4
26/01:30pm 15.6 5.3 8.3 62 3.7 W 52 61 28 33 1012.7 - 0.4
26/01:00pm 15.4 6.0 8.7 64 3.4 W 48 59 26 32 1012.6 1012.6 0.4
26/12:30pm 15.3 4.6 7.9 61 3.7 W 54 63 29 34 1012.7 - 0.4
26/12:00pm 15.0 5.3 9.1 68 3.0 W 50 59 27 32 1012.9 1012.9 0.4
26/11:30am 14.6 5.7 9.3 70 2.7 W 46 59 25 32 1012.9 - 0.4
26/11:00am 14.1 4.5 9.4 73 2.4 W 50 74 27 40 1012.6 1012.6 0.4
26/10:58am 14.7 5.6 9.9 73 2.5 W 48 72 26 39 1012.6 - 0.4
26/10:30am 15.0 7.4 11.7 80 1.8 W 43 52 23 28 1012.3 - 0.4
26/10:00am 14.5 4.8 10.5 77 2.1 W 52 59 28 32 1011.7 1011.7 0.4
26/09:30am 14.5 6.0 11.9 84 1.4 W 48 59 26 32 1011.3 - 0.4
26/09:00am 15.0 6.7 11.5 79 1.9 W 46 56 25 30 1010.7 1010.7 12.6
26/08:30am 14.8 7.4 12.6 87 1.2 W 43 52 23 28 1010.7 - 12.6
26/08:00am 14.1 4.6 12.3 89 1.0 W 54 65 29 35 1010.1 1010.1 12.4
26/07:30am 14.6 6.5 13.3 92 0.7 W 48 57 26 31 1010.1 - 10.6
26/07:00am 14.1 5.5 12.8 92 0.7 W 50 59 27 32 1009.0 1009.0 9.6
26/06:30am 15.7 7.1 12.8 83 1.6 W 50 59 27 32 1008.8 - 9.4
26/06:00am 15.3 7.6 13.3 88 1.1 W 46 54 25 29 1008.3 1008.3 9.2
26/05:30am 15.2 7.4 14.0 92 0.7 W 48 61 26 33 1008.2 - 7.8
26/05:20am 15.9 7.7 13.0 83 1.6 W 48 67 26 36 1007.8 - 7.6
26/05:00am 16.1 8.6 14.0 87 1.2 WNW 46 54 25 29 1008.0 1008.0 7.6
26/04:33am 15.7 7.7 14.7 94 0.6 W 50 56 27 30 1008.1 - 6.2
26/04:30am 16.4 7.4 15.0 91 0.8 NW 56 67 30 36 1007.8 - 5.4
26/04:01am 16.2 5.2 14.1 87 1.2 NW 65 83 35 45 1007.8 - 4.6
26/04:00am 16.1 4.6 14.0 87 1.2 NW 67 83 36 45 1007.8 1007.8 4.6
26/03:30am 17.0 6.9 14.6 86 1.4 NW 61 80 33 43 1007.8 - 3.8
26/03:08am 17.5 8.2 14.6 83 1.7 NW 57 76 31 41 1008.0 - 2.2
26/03:00am 17.9 7.4 13.5 75 2.5 NW 61 74 33 40 1008.0 1008.0 2.2
26/02:37am 17.8 7.3 13.4 75 2.5 NW 61 80 33 43 1008.3 - 2.2

Other Formats:

Comma delimited format used in spreadsheet applications
http://www.bom.gov.au/fwo/IDW60801/IDW60801.94601.axf

JavaScript Object Notation format (JSON) in row-major order
http://www.bom.gov.au/fwo/IDW60801/IDW60801.94601.json